createdAt,value
2022-12-26T00:02:43.518Z,96.82
2022-12-26T00:07:46.234Z,95.05
2022-12-26T00:12:48.509Z,90.30
2022-12-26T00:17:50.659Z,86.18
2022-12-26T00:22:54.893Z,89.82
2022-12-26T00:27:57.548Z,82.00
2022-12-26T00:32:59.746Z,84.80
2022-12-26T00:38:02.496Z,80.80
2022-12-26T00:43:04.643Z,78.70
2022-12-26T00:48:06.823Z,75.57
2022-12-26T00:53:08.983Z,73.20
2022-12-26T00:58:11.192Z,59.40
2022-12-26T01:03:14.372Z,56.90
2022-12-26T01:08:24.549Z,70.95
2022-12-26T01:13:27.256Z,68.68
2022-12-26T01:18:29.816Z,84.75
2022-12-26T01:23:32.022Z,76.53
2022-12-26T01:28:34.165Z,70.03
2022-12-26T01:33:36.879Z,64.88
2022-12-26T01:38:39.404Z,69.57
2022-12-26T01:43:59.773Z,80.50
2022-12-26T01:49:09.960Z,114.65
2022-12-26T01:54:39.424Z,89.10
2022-12-26T01:59:39.044Z,95.38
2022-12-26T02:05:05.006Z,97.10
2022-12-26T02:10:14.039Z,100.78
2022-12-26T02:15:18.014Z,110.22
2022-12-26T02:20:25.175Z,144.18
2022-12-26T02:25:58.080Z,110.68
2022-12-26T02:31:23.961Z,112.53
2022-12-26T02:36:47.498Z,100.35
2022-12-26T02:42:27.164Z,101.47
2022-12-26T02:47:43.971Z,79.57
2022-12-26T02:53:07.232Z,89.68
2022-12-26T02:58:41.169Z,86.15
2022-12-26T03:04:03.534Z,94.20
2022-12-26T03:09:33.520Z,76.43
2022-12-26T03:14:56.407Z,70.32
2022-12-26T03:20:06.485Z,72.80
2022-12-26T03:25:46.181Z,79.47
2022-12-26T03:30:51.344Z,73.32
2022-12-26T03:35:59.243Z,69.50
2022-12-26T03:41:34.033Z,66.32
2022-12-26T03:47:39.578Z,87.78
2022-12-26T03:53:28.915Z,78.57
2022-12-26T03:58:58.338Z,80.22
2022-12-26T04:04:21.186Z,88.25
2022-12-26T04:10:07.174Z,81.90
2022-12-26T04:15:56.948Z,81.00
2022-12-26T04:21:36.179Z,97.72
2022-12-26T04:27:02.340Z,83.93
2022-12-26T04:32:34.368Z,72.05
2022-12-26T04:38:06.878Z,57.05
2022-12-26T04:43:46.712Z,54.28
2022-12-26T04:49:12.028Z,52.78
2022-12-26T04:54:14.248Z,58.85
2022-12-26T04:59:16.729Z,58.67
2022-12-26T05:04:38.395Z,57.20
2022-12-26T05:09:40.592Z,54.33
2022-12-26T05:14:47.030Z,59.97
2022-12-26T05:20:07.862Z,50.15
2022-12-26T05:25:37.565Z,51.72
2022-12-26T05:30:43.955Z,61.33
2022-12-26T05:35:46.219Z,58.28
2022-12-26T05:40:48.368Z,51.25
2022-12-26T05:45:50.484Z,55.85
2022-12-26T05:50:52.776Z,54.35
2022-12-26T05:55:55.023Z,52.78
2022-12-26T06:01:09.307Z,51.20
2022-12-26T06:06:11.629Z,52.05
2022-12-26T06:11:14.458Z,52.03
2022-12-26T06:16:18.293Z,62.50
2022-12-26T06:21:21.331Z,67.47
2022-12-26T06:26:23.487Z,62.40
2022-12-26T06:31:25.933Z,55.28
2022-12-26T06:36:30.666Z,63.67
2022-12-26T06:41:32.881Z,67.10
2022-12-26T06:46:36.778Z,60.30
2022-12-26T06:51:39.099Z,62.53
2022-12-26T06:56:41.285Z,63.97
2022-12-26T07:01:43.653Z,62.95
2022-12-26T07:06:45.923Z,71.72
2022-12-26T07:11:50.688Z,72.45
2022-12-26T07:16:52.961Z,61.38
2022-12-26T07:21:55.240Z,66.90
2022-12-26T07:26:59.273Z,66.47
2022-12-26T07:37:32.373Z,70.85
2022-12-26T07:42:37.698Z,67.28
2022-12-26T07:47:40.746Z,63.60
2022-12-26T07:52:42.926Z,56.58
2022-12-26T07:57:48.935Z,49.38
2022-12-26T08:08:17.175Z,41.13
2022-12-26T08:13:19.304Z,44.85
2022-12-26T08:18:21.495Z,63.08
2022-12-26T08:23:26.342Z,67.88
2022-12-26T08:28:28.486Z,52.65
2022-12-26T08:33:30.620Z,55.78
2022-12-26T08:38:34.115Z,44.38
2022-12-26T08:44:16.516Z,39.67
2022-12-26T08:48:58.927Z,37.53
2022-12-26T08:54:01.166Z,36.60
2022-12-26T08:59:03.327Z,35.05
2022-12-26T09:04:07.460Z,35.83
2022-12-26T09:09:12.436Z,41.28
2022-12-26T09:14:14.649Z,39.55
2022-12-26T09:19:19.697Z,46.47
2022-12-26T09:24:23.129Z,64.43
2022-12-26T09:29:25.348Z,68.22
2022-12-26T09:34:27.565Z,59.47
2022-12-26T09:39:29.852Z,62.85
2022-12-26T09:44:55.322Z,60.13
2022-12-26T09:50:20.654Z,63.03
2022-12-26T09:55:44.110Z,52.10
2022-12-26T10:01:00.588Z,46.65
2022-12-26T10:06:11.167Z,48.08
2022-12-26T10:11:38.934Z,55.55
2022-12-26T10:17:08.719Z,48.05
2022-12-26T10:22:57.420Z,44.88
2022-12-26T10:28:00.880Z,44.15
2022-12-26T10:33:12.088Z,41.35
2022-12-26T10:38:40.767Z,40.92
2022-12-26T10:43:45.353Z,40.75
2022-12-26T10:48:48.748Z,40.83
2022-12-26T10:53:53.123Z,35.38
2022-12-26T10:59:05.506Z,44.60
2022-12-26T11:04:18.855Z,38.70
2022-12-26T11:09:40.092Z,41.92
2022-12-26T11:14:47.208Z,42.33
2022-12-26T11:19:49.531Z,46.75
2022-12-26T11:25:10.186Z,40.58
2022-12-26T11:30:15.321Z,42.28
2022-12-26T11:35:23.480Z,36.42
2022-12-26T11:40:32.608Z,38.95
2022-12-26T11:45:44.049Z,41.20
2022-12-26T11:50:47.165Z,45.45
2022-12-26T11:56:07.658Z,60.28
2022-12-26T12:01:16.078Z,54.78
2022-12-26T12:06:36.797Z,45.75
2022-12-26T12:12:06.522Z,51.20
2022-12-26T12:17:14.521Z,44.67
2022-12-26T12:22:38.032Z,41.60
2022-12-26T12:28:09.309Z,60.58
2022-12-26T12:33:20.363Z,54.42
2022-12-26T12:38:36.910Z,52.22
2022-12-26T12:43:39.081Z,50.90
2022-12-26T12:48:54.722Z,44.78
2022-12-26T12:54:22.946Z,52.78
2022-12-26T12:59:38.833Z,45.03
2022-12-26T13:04:48.367Z,45.25
2022-12-26T13:09:56.744Z,42.28
2022-12-26T13:15:24.541Z,43.22
2022-12-26T13:20:37.434Z,49.55
2022-12-26T13:25:50.813Z,34.60
2022-12-26T13:30:57.239Z,70.13
2022-12-26T13:36:07.466Z,38.83
2022-12-26T13:41:36.766Z,36.40
2022-12-26T13:46:41.592Z,29.42
2022-12-26T13:51:50.089Z,59.25
2022-12-26T13:57:16.121Z,31.33
2022-12-26T14:02:58.744Z,43.80
2022-12-26T14:08:36.200Z,62.65
2022-12-26T14:14:09.053Z,31.30
2022-12-26T14:19:36.717Z,23.40
2022-12-26T14:25:03.162Z,24.02
2022-12-26T14:30:42.638Z,19.55
2022-12-26T14:36:01.897Z,24.45
2022-12-26T14:41:09.403Z,24.70
2022-12-26T14:46:33.078Z,29.88
2022-12-26T14:51:38.559Z,27.98
2022-12-26T14:56:40.946Z,27.60
2022-12-26T15:01:48.024Z,40.53
2022-12-26T15:07:01.978Z,36.00
2022-12-26T15:12:31.808Z,28.08
2022-12-26T15:17:49.226Z,30.75
2022-12-26T15:23:03.628Z,30.90
2022-12-26T15:28:42.213Z,32.40
2022-12-26T15:33:52.955Z,28.98
2022-12-26T15:39:03.922Z,41.00
2022-12-26T15:44:23.979Z,26.45
2022-12-26T15:49:32.313Z,36.83
2022-12-26T15:55:13.200Z,41.92
2022-12-26T16:00:24.198Z,31.15
2022-12-26T16:06:05.281Z,30.88
2022-12-26T16:16:31.505Z,29.08
2022-12-26T16:21:52.305Z,30.23
2022-12-26T16:26:55.772Z,29.05
2022-12-26T16:32:08.088Z,37.78
2022-12-26T16:37:20.500Z,41.58
2022-12-26T16:42:31.381Z,39.95
2022-12-26T16:47:35.335Z,35.90
2022-12-26T16:52:46.202Z,51.40
2022-12-26T16:57:54.959Z,48.10
2022-12-26T17:03:00.560Z,44.22
2022-12-26T17:08:04.884Z,32.50
2022-12-26T17:13:10.157Z,39.78
2022-12-26T17:18:47.961Z,57.25
2022-12-26T17:24:15.589Z,52.92
2022-12-26T17:29:55.272Z,49.05
2022-12-26T17:35:01.256Z,63.08
2022-12-26T17:40:20.696Z,75.03
2022-12-26T17:45:26.705Z,63.53
2022-12-26T17:50:35.773Z,51.53
2022-12-26T17:55:38.132Z,75.53
2022-12-26T18:00:41.944Z,70.70
2022-12-26T18:05:46.485Z,85.45
2022-12-26T18:10:49.035Z,87.95
2022-12-26T18:15:53.472Z,77.47
2022-12-26T18:20:55.761Z,64.85
2022-12-26T18:26:02.037Z,79.53
2022-12-26T18:31:04.591Z,83.63
2022-12-26T18:36:07.919Z,68.03
2022-12-26T18:41:20.786Z,100.57
2022-12-26T18:46:25.951Z,92.38
2022-12-26T18:51:31.706Z,78.13
2022-12-26T18:56:34.469Z,72.43
2022-12-26T19:01:37.508Z,70.47
2022-12-26T19:06:41.469Z,63.17
2022-12-26T19:11:44.388Z,80.57
2022-12-26T19:16:47.416Z,70.18
2022-12-26T19:21:49.772Z,82.25
2022-12-26T19:26:51.959Z,70.18
2022-12-26T19:31:54.222Z,83.25
2022-12-26T19:36:56.564Z,66.35
2022-12-26T19:41:58.867Z,94.93
2022-12-26T19:47:10.971Z,79.22
2022-12-26T19:52:14.739Z,74.43
2022-12-26T19:57:17.627Z,83.53
2022-12-26T20:02:20.536Z,64.85
2022-12-26T20:07:23.466Z,65.97
2022-12-26T20:12:26.641Z,74.10
2022-12-26T20:17:30.150Z,73.40
2022-12-26T20:22:33.548Z,64.70
2022-12-26T20:27:36.800Z,81.20
2022-12-26T20:32:39.504Z,81.03
2022-12-26T20:37:41.686Z,79.05
2022-12-26T20:42:43.819Z,74.82
2022-12-26T20:47:46.052Z,74.68
2022-12-26T20:52:48.248Z,71.45
2022-12-26T20:57:50.580Z,66.22
2022-12-26T21:02:53.841Z,73.80
2022-12-26T21:07:56.435Z,67.97
2022-12-26T21:12:59.309Z,87.85
2022-12-26T21:18:01.790Z,85.95
2022-12-26T21:23:04.066Z,74.47
2022-12-26T21:28:06.236Z,63.05
2022-12-26T21:33:08.445Z,91.97
2022-12-26T21:38:10.669Z,79.05
2022-12-26T21:43:12.893Z,84.80
2022-12-26T21:48:16.286Z,80.38
2022-12-26T21:53:18.438Z,79.32
2022-12-26T21:58:20.904Z,62.95
2022-12-26T22:03:41.829Z,89.68
2022-12-26T22:08:45.329Z,83.13
2022-12-26T22:13:49.875Z,66.72
2022-12-26T22:18:52.230Z,62.55
2022-12-26T22:23:54.600Z,61.78
2022-12-26T22:28:58.002Z,57.67
2022-12-26T22:34:02.696Z,55.53
2022-12-26T22:39:04.885Z,61.58
2022-12-26T22:44:07.261Z,60.45
2022-12-26T22:49:09.553Z,47.22
2022-12-26T22:54:11.663Z,53.72
2022-12-26T22:59:27.498Z,44.13
2022-12-26T23:04:36.345Z,65.43
2022-12-26T23:09:38.603Z,59.65
2022-12-26T23:14:40.952Z,45.55
2022-12-26T23:20:11.098Z,51.83
2022-12-26T23:25:13.413Z,43.93
2022-12-26T23:30:18.437Z,37.53
2022-12-26T23:35:22.537Z,46.72
2022-12-26T23:40:24.881Z,41.25
2022-12-26T23:45:27.050Z,38.28
2022-12-26T23:50:29.424Z,34.15
2022-12-26T23:55:31.683Z,31.23
